createdAt,value
2019-02-27T00:00:47.827Z,996.69
2019-02-27T00:01:49.982Z,996.68
2019-02-27T00:02:47.867Z,996.71
2019-02-27T00:03:47.755Z,996.63
2019-02-27T00:04:47.799Z,996.62
2019-02-27T00:05:47.716Z,996.61
2019-02-27T00:06:48.441Z,996.59
2019-02-27T00:07:47.811Z,996.56
2019-02-27T00:08:47.701Z,996.58
2019-02-27T00:09:47.742Z,996.64
2019-02-27T00:10:47.673Z,996.63
2019-02-27T00:11:47.672Z,996.66
2019-02-27T00:12:51.718Z,996.60
2019-02-27T00:13:47.652Z,996.57
2019-02-27T00:14:47.672Z,996.55
2019-02-27T00:15:47.615Z,996.60
2019-02-27T00:16:47.713Z,996.60
2019-02-27T00:17:51.151Z,996.57
2019-02-27T00:18:47.599Z,996.50
2019-02-27T00:19:47.627Z,996.49
2019-02-27T00:20:47.566Z,996.48
2019-02-27T00:21:47.666Z,996.43
2019-02-27T00:22:47.900Z,996.50
2019-02-27T00:23:48.558Z,996.49
2019-02-27T00:24:47.517Z,996.44
2019-02-27T00:25:47.520Z,996.44
2019-02-27T00:26:47.489Z,996.46
2019-02-27T00:27:49.276Z,996.46
2019-02-27T00:28:47.501Z,996.44
2019-02-27T00:29:47.499Z,996.47
2019-02-27T00:30:47.444Z,996.45
2019-02-27T00:31:47.542Z,996.40
2019-02-27T00:32:51.044Z,996.43
2019-02-27T00:33:47.428Z,996.40
2019-02-27T00:34:47.442Z,996.39
2019-02-27T00:35:47.402Z,996.39
2019-02-27T00:36:47.471Z,996.39
2019-02-27T00:37:51.864Z,996.40
2019-02-27T00:38:48.369Z,996.46
2019-02-27T00:39:47.339Z,996.45
2019-02-27T00:40:47.444Z,996.44
2019-02-27T00:41:47.324Z,996.48
2019-02-27T00:42:47.384Z,996.40
2019-02-27T00:43:47.312Z,996.46
2019-02-27T00:44:47.315Z,996.43
2019-02-27T00:45:47.278Z,996.40
2019-02-27T00:46:47.356Z,996.40
2019-02-27T00:47:47.248Z,996.33
2019-02-27T00:48:47.337Z,996.33
2019-02-27T00:49:47.223Z,996.31
2019-02-27T00:50:47.324Z,996.40
2019-02-27T00:51:47.206Z,996.36
2019-02-27T00:52:50.823Z,996.34
2019-02-27T00:53:47.229Z,996.35
2019-02-27T00:54:47.171Z,996.32
2019-02-27T00:55:47.260Z,996.32
2019-02-27T00:56:47.149Z,996.30
2019-02-27T00:57:47.200Z,996.34
2019-02-27T00:58:47.133Z,996.37
2019-02-27T00:59:47.130Z,996.36
2019-02-27T01:00:47.101Z,996.41
2019-02-27T01:01:48.206Z,996.39
2019-02-27T01:02:47.092Z,996.41
2019-02-27T01:03:48.143Z,996.40
2019-02-27T01:04:47.080Z,996.43
2019-02-27T01:05:48.074Z,996.40
2019-02-27T01:06:47.562Z,996.35
2019-02-27T01:07:47.084Z,996.38
2019-02-27T01:08:47.025Z,996.35
2019-02-27T01:09:47.065Z,996.37
2019-02-27T01:10:47.012Z,996.38
2019-02-27T01:11:51.517Z,996.35
2019-02-27T01:12:46.977Z,996.30
2019-02-27T01:13:46.989Z,996.30
2019-02-27T01:14:46.970Z,996.31
2019-02-27T01:15:46.940Z,996.31
2019-02-27T01:16:47.676Z,996.28
2019-02-27T01:17:46.911Z,996.28
2019-02-27T01:18:46.923Z,996.26
2019-02-27T01:19:46.909Z,996.21
2019-02-27T01:20:46.883Z,996.21
2019-02-27T01:21:46.880Z,996.20
2019-02-27T01:22:46.897Z,996.25
2019-02-27T01:23:46.836Z,996.18
2019-02-27T01:24:49.891Z,996.20
2019-02-27T01:25:46.818Z,996.16
2019-02-27T01:26:47.888Z,996.15
2019-02-27T01:27:46.801Z,996.15
2019-02-27T01:28:46.903Z,996.13
2019-02-27T01:29:50.947Z,996.16
2019-02-27T01:30:46.854Z,996.15
2019-02-27T01:31:46.751Z,996.15
2019-02-27T01:32:46.784Z,996.13
2019-02-27T01:33:46.755Z,996.12
2019-02-27T01:34:46.755Z,996.11
2019-02-27T01:35:51.288Z,996.08
2019-02-27T01:36:47.696Z,996.07
2019-02-27T01:37:46.717Z,996.06
2019-02-27T01:38:46.678Z,996.06
2019-02-27T01:39:48.746Z,996.07
2019-02-27T01:40:48.950Z,996.04
2019-02-27T01:41:46.648Z,996.05
2019-02-27T01:42:46.632Z,996.02
2019-02-27T01:43:46.719Z,995.95
2019-02-27T01:44:47.272Z,995.98
2019-02-27T01:45:47.690Z,995.93
2019-02-27T01:46:46.632Z,995.95
2019-02-27T01:47:46.582Z,995.94
2019-02-27T01:48:47.590Z,995.91
2019-02-27T01:49:48.906Z,995.89
2019-02-27T01:50:55.214Z,995.88
2019-02-27T01:51:46.536Z,995.88
2019-02-27T01:52:46.543Z,995.82
2019-02-27T01:53:46.512Z,995.88
2019-02-27T01:54:48.861Z,995.85
2019-02-27T01:55:46.493Z,995.82
2019-02-27T01:56:46.516Z,995.84
2019-02-27T01:57:46.464Z,995.84
2019-02-27T01:58:46.544Z,995.81
2019-02-27T01:59:50.030Z,995.82
2019-02-27T02:00:46.486Z,995.77
2019-02-27T02:01:46.490Z,995.76
2019-02-27T02:02:46.410Z,995.78
2019-02-27T02:03:47.469Z,995.72
2019-02-27T02:04:46.497Z,995.71
2019-02-27T02:05:46.367Z,995.69
2019-02-27T02:06:46.387Z,995.68
2019-02-27T02:07:46.455Z,995.69
2019-02-27T02:08:48.227Z,995.67
2019-02-27T02:09:46.429Z,995.68
2019-02-27T02:10:46.309Z,995.65
2019-02-27T02:11:46.315Z,995.62
2019-02-27T02:12:46.277Z,995.62
2019-02-27T02:13:48.300Z,995.61
2019-02-27T02:14:46.281Z,995.61
2019-02-27T02:15:46.291Z,995.59
2019-02-27T02:16:46.400Z,995.55
2019-02-27T02:17:46.330Z,995.55
2019-02-27T02:18:48.225Z,995.54
2019-02-27T02:19:46.312Z,995.55
2019-02-27T02:20:46.193Z,995.52
2019-02-27T02:21:46.205Z,995.52
2019-02-27T02:22:46.174Z,995.47
2019-02-27T02:23:47.945Z,995.52
2019-02-27T02:24:46.265Z,995.48
2019-02-27T02:25:46.155Z,995.49
2019-02-27T02:26:47.179Z,995.52
2019-02-27T02:27:46.117Z,995.49
2019-02-27T02:28:48.312Z,995.52
2019-02-27T02:29:46.197Z,995.48
2019-02-27T02:30:46.126Z,995.49
2019-02-27T02:31:46.179Z,995.53
2019-02-27T02:32:51.984Z,995.51
2019-02-27T02:33:47.053Z,995.55
2019-02-27T02:34:46.070Z,995.50
2019-02-27T02:35:49.836Z,995.51
2019-02-27T02:36:46.030Z,995.48
2019-02-27T02:37:47.116Z,995.48
2019-02-27T02:38:46.000Z,995.48
2019-02-27T02:39:46.004Z,995.48
2019-02-27T02:40:45.997Z,995.43
2019-02-27T02:41:47.945Z,995.40
2019-02-27T02:42:46.032Z,995.34
2019-02-27T02:43:45.932Z,995.36
2019-02-27T02:44:45.939Z,995.34
2019-02-27T02:45:45.933Z,995.40
2019-02-27T02:46:46.393Z,995.36
2019-02-27T02:47:45.974Z,995.32
2019-02-27T02:48:45.885Z,995.33
2019-02-27T02:49:45.882Z,995.33
2019-02-27T02:50:45.877Z,995.28
2019-02-27T02:51:45.845Z,995.28
2019-02-27T02:52:45.914Z,995.29
2019-02-27T02:53:48.547Z,995.28
2019-02-27T02:54:45.843Z,995.26
2019-02-27T02:55:48.816Z,995.26
2019-02-27T02:56:45.877Z,995.22
2019-02-27T02:57:45.792Z,995.20
2019-02-27T02:58:48.328Z,995.21
2019-02-27T02:59:45.758Z,995.26
2019-02-27T03:00:45.799Z,995.18
2019-02-27T03:01:49.369Z,995.27
2019-02-27T03:02:45.789Z,995.26
2019-02-27T03:03:45.709Z,995.24
2019-02-27T03:04:48.231Z,995.19
2019-02-27T03:05:45.712Z,995.20
2019-02-27T03:06:45.763Z,995.18
2019-02-27T03:07:45.760Z,995.16
2019-02-27T03:08:45.693Z,995.15
2019-02-27T03:09:45.648Z,995.15
2019-02-27T03:10:45.653Z,995.13
2019-02-27T03:11:45.628Z,995.12
2019-02-27T03:12:47.727Z,995.11
2019-02-27T03:13:45.595Z,995.07
2019-02-27T03:14:45.607Z,995.07
2019-02-27T03:15:45.624Z,995.04
2019-02-27T03:16:45.675Z,995.00
2019-02-27T03:17:46.636Z,995.04
2019-02-27T03:18:45.553Z,995.02
2019-02-27T03:19:45.541Z,995.00
2019-02-27T03:20:51.790Z,995.00
2019-02-27T03:21:46.501Z,995.02
2019-02-27T03:22:45.542Z,994.98
2019-02-27T03:23:51.055Z,994.99
2019-02-27T03:24:46.501Z,994.93
2019-02-27T03:25:45.474Z,995.00
2019-02-27T03:26:51.814Z,994.92
2019-02-27T03:27:46.510Z,994.94
2019-02-27T03:28:45.429Z,994.95
2019-02-27T03:29:51.992Z,995.05
2019-02-27T03:30:46.417Z,994.98
2019-02-27T03:31:45.390Z,994.98
2019-02-27T03:32:45.433Z,995.01
2019-02-27T03:33:45.370Z,995.05
2019-02-27T03:34:50.255Z,995.05
2019-02-27T03:35:46.360Z,995.06
2019-02-27T03:36:45.333Z,995.04
2019-02-27T03:37:48.548Z,995.03
2019-02-27T03:38:45.332Z,995.08
2019-02-27T03:39:45.307Z,995.07
2019-02-27T03:40:48.133Z,995.08
2019-02-27T03:41:45.275Z,995.09
2019-02-27T03:42:45.315Z,995.08
2019-02-27T03:43:46.070Z,995.09
2019-02-27T03:44:45.356Z,995.10
2019-02-27T03:45:45.259Z,995.10
2019-02-27T03:46:45.311Z,995.10
2019-02-27T03:47:45.209Z,995.10
2019-02-27T03:48:45.308Z,995.09
2019-02-27T03:49:45.191Z,995.10
2019-02-27T03:50:49.437Z,995.10
2019-02-27T03:51:45.179Z,995.08
2019-02-27T03:52:45.164Z,995.09
2019-02-27T03:53:46.411Z,995.13
2019-02-27T03:54:45.222Z,995.10
2019-02-27T03:55:45.132Z,995.10
2019-02-27T03:56:45.154Z,995.10
2019-02-27T03:57:45.131Z,995.10
2019-02-27T03:58:45.090Z,995.06
2019-02-27T03:59:46.192Z,995.12
2019-02-27T04:00:45.087Z,995.06
2019-02-27T04:01:45.105Z,995.03
2019-02-27T04:02:45.043Z,995.06
2019-02-27T04:03:46.048Z,995.04
2019-02-27T04:04:45.024Z,995.03
2019-02-27T04:05:46.229Z,994.99
2019-02-27T04:06:44.998Z,994.99
2019-02-27T04:07:45.005Z,994.99
2019-02-27T04:08:45.253Z,994.95
2019-02-27T04:09:45.047Z,994.94
2019-02-27T04:10:44.961Z,994.92
2019-02-27T04:11:45.993Z,994.89
2019-02-27T04:12:44.928Z,994.81
2019-02-27T04:13:44.967Z,994.87
2019-02-27T04:14:44.974Z,994.86
2019-02-27T04:15:44.915Z,994.87
2019-02-27T04:16:45.937Z,994.82
2019-02-27T04:17:44.870Z,994.81
2019-02-27T04:18:44.858Z,994.78
2019-02-27T04:19:44.850Z,994.77
2019-02-27T04:20:49.664Z,994.80
2019-02-27T04:21:45.835Z,994.76
2019-02-27T04:22:44.920Z,994.80
2019-02-27T04:23:48.972Z,994.79
2019-02-27T04:24:44.798Z,994.81
2019-02-27T04:25:44.873Z,994.86
2019-02-27T04:26:44.775Z,994.81
2019-02-27T04:27:44.867Z,994.79
2019-02-27T04:28:44.743Z,994.77
2019-02-27T04:29:44.734Z,994.77
2019-02-27T04:30:44.814Z,994.80
2019-02-27T04:31:44.716Z,994.72
2019-02-27T04:32:48.695Z,994.74
2019-02-27T04:33:44.686Z,994.77
2019-02-27T04:34:44.695Z,994.79
2019-02-27T04:35:44.750Z,994.79
2019-02-27T04:36:46.984Z,994.84
2019-02-27T04:37:44.738Z,994.78
2019-02-27T04:38:44.646Z,994.81
2019-02-27T04:39:44.644Z,994.75
2019-02-27T04:40:44.778Z,994.80
2019-02-27T04:41:44.612Z,994.77
2019-02-27T04:42:44.595Z,994.76
2019-02-27T04:43:44.648Z,994.73
2019-02-27T04:44:44.591Z,994.73
2019-02-27T04:45:46.706Z,994.75
2019-02-27T04:46:44.554Z,994.71
2019-02-27T04:47:44.614Z,994.70
2019-02-27T04:48:44.684Z,994.71
2019-02-27T04:49:44.560Z,994.70
2019-02-27T04:50:44.789Z,994.69
2019-02-27T04:51:44.477Z,994.67
2019-02-27T04:52:44.477Z,994.71
2019-02-27T04:53:44.527Z,994.71
2019-02-27T04:54:44.454Z,994.71
2019-02-27T04:55:44.449Z,994.70
2019-02-27T04:56:44.532Z,994.66
2019-02-27T04:57:44.420Z,994.66
2019-02-27T04:58:46.513Z,994.63
2019-02-27T04:59:44.391Z,994.64
2019-02-27T05:00:44.414Z,994.59
2019-02-27T05:01:44.384Z,994.63
2019-02-27T05:02:44.449Z,994.61
2019-02-27T05:03:44.355Z,994.60
2019-02-27T05:04:44.385Z,994.59
2019-02-27T05:05:44.336Z,994.55
2019-02-27T05:06:46.803Z,994.55
2019-02-27T05:07:44.306Z,994.56
2019-02-27T05:08:44.357Z,994.54
2019-02-27T05:09:44.297Z,994.51
2019-02-27T05:10:44.391Z,994.54
2019-02-27T05:11:47.440Z,994.57
2019-02-27T05:12:47.805Z,994.58
2019-02-27T05:13:44.250Z,994.55
2019-02-27T05:14:44.253Z,994.50
2019-02-27T05:15:44.229Z,994.55
2019-02-27T05:16:47.055Z,994.53
2019-02-27T05:17:44.260Z,994.51
2019-02-27T05:18:44.190Z,994.52
2019-02-27T05:19:44.201Z,994.55
2019-02-27T05:20:45.685Z,994.54
2019-02-27T05:21:44.165Z,994.59
2019-02-27T05:22:44.202Z,994.56
2019-02-27T05:23:44.130Z,994.57
2019-02-27T05:24:45.154Z,994.58
2019-02-27T05:25:44.098Z,994.57
2019-02-27T05:26:44.109Z,994.59
2019-02-27T05:27:44.094Z,994.59
2019-02-27T05:28:44.102Z,994.59
2019-02-27T05:29:44.061Z,994.57
2019-02-27T05:30:45.325Z,994.59
2019-02-27T05:31:44.042Z,994.59
2019-02-27T05:32:44.025Z,994.60
2019-02-27T05:33:44.047Z,994.63
2019-02-27T05:34:49.411Z,994.60
2019-02-27T05:35:45.113Z,994.60
2019-02-27T05:36:44.016Z,994.59
2019-02-27T05:37:43.968Z,994.58
2019-02-27T05:38:44.209Z,994.58
2019-02-27T05:39:43.947Z,994.60
2019-02-27T05:40:44.030Z,994.57
2019-02-27T05:41:43.938Z,994.57
2019-02-27T05:42:43.899Z,994.52
2019-02-27T05:43:47.708Z,994.53
2019-02-27T05:44:44.002Z,994.56
2019-02-27T05:45:43.882Z,994.53
2019-02-27T05:46:43.972Z,994.52
2019-02-27T05:47:45.838Z,994.49
2019-02-27T05:48:43.964Z,994.51
2019-02-27T05:49:43.834Z,994.54
2019-02-27T05:50:44.491Z,994.55
2019-02-27T05:51:43.834Z,994.55
2019-02-27T05:52:48.423Z,994.50
2019-02-27T05:53:43.795Z,994.49
2019-02-27T05:54:43.867Z,994.49
2019-02-27T05:55:43.785Z,994.52
2019-02-27T05:56:43.858Z,994.51
2019-02-27T05:57:43.751Z,994.48
2019-02-27T05:58:43.743Z,994.51
2019-02-27T05:59:43.815Z,994.45
2019-02-27T06:00:43.720Z,994.51
2019-02-27T06:01:43.792Z,994.51
2019-02-27T06:02:45.014Z,994.49
2019-02-27T06:03:43.678Z,994.45
2019-02-27T06:04:43.668Z,994.51
2019-02-27T06:05:49.568Z,994.53
2019-02-27T06:06:45.700Z,994.52
2019-02-27T06:07:43.755Z,994.47
2019-02-27T06:08:43.626Z,994.42
2019-02-27T06:09:44.495Z,994.47
2019-02-27T06:10:43.597Z,994.46
2019-02-27T06:11:43.669Z,994.46
2019-02-27T06:12:43.579Z,994.47
2019-02-27T06:13:44.997Z,994.42
2019-02-27T06:14:43.561Z,994.43
2019-02-27T06:15:43.590Z,994.46
2019-02-27T06:16:43.551Z,994.42
2019-02-27T06:17:46.384Z,994.41
2019-02-27T06:18:44.512Z,994.40
2019-02-27T06:19:43.504Z,994.42
2019-02-27T06:20:43.503Z,994.45
2019-02-27T06:21:44.583Z,994.43
2019-02-27T06:22:43.454Z,994.42
2019-02-27T06:23:43.536Z,994.42
2019-02-27T06:24:45.641Z,994.42
2019-02-27T06:25:43.448Z,994.41
2019-02-27T06:26:43.503Z,994.41
2019-02-27T06:27:43.416Z,994.47
2019-02-27T06:28:43.487Z,994.50
2019-02-27T06:29:43.446Z,994.48
2019-02-27T06:30:43.417Z,994.47
2019-02-27T06:31:43.381Z,994.48
2019-02-27T06:32:44.841Z,994.52
2019-02-27T06:33:45.774Z,994.56
2019-02-27T06:34:43.389Z,994.53
2019-02-27T06:35:43.313Z,994.55
2019-02-27T06:36:43.369Z,994.61
2019-02-27T06:37:43.403Z,994.61
2019-02-27T06:38:43.360Z,994.63
2019-02-27T06:39:43.292Z,994.61
2019-02-27T06:40:43.291Z,994.59
2019-02-27T06:41:43.311Z,994.59
2019-02-27T06:42:43.254Z,994.58
2019-02-27T06:43:43.337Z,994.62
2019-02-27T06:44:43.222Z,994.63
2019-02-27T06:45:45.757Z,994.58
2019-02-27T06:46:44.599Z,994.60
2019-02-27T06:47:43.265Z,994.56
2019-02-27T06:48:44.101Z,994.56
2019-02-27T06:49:43.204Z,994.57
2019-02-27T06:50:43.166Z,994.50
2019-02-27T06:51:43.183Z,994.43
2019-02-27T06:52:43.162Z,994.50
2019-02-27T06:53:43.175Z,994.45
2019-02-27T06:54:43.177Z,994.48
2019-02-27T06:55:43.096Z,994.52
2019-02-27T06:56:43.106Z,994.51
2019-02-27T06:57:43.147Z,994.48
2019-02-27T06:58:43.082Z,994.45
2019-02-27T06:59:43.098Z,994.44
2019-02-27T07:00:44.078Z,994.44
2019-02-27T07:01:45.106Z,994.45
2019-02-27T07:02:43.089Z,994.42
2019-02-27T07:03:43.112Z,994.41
2019-02-27T07:04:43.029Z,994.44
2019-02-27T07:05:45.525Z,994.43
2019-02-27T07:06:44.001Z,994.43
2019-02-27T07:07:43.025Z,994.46
2019-02-27T07:08:42.977Z,994.46
2019-02-27T07:09:45.674Z,994.50
2019-02-27T07:10:42.945Z,994.48
2019-02-27T07:11:46.253Z,994.49
2019-02-27T07:12:43.936Z,994.45
2019-02-27T07:13:42.927Z,994.49
2019-02-27T07:14:42.904Z,994.41
2019-02-27T07:15:47.760Z,994.43
2019-02-27T07:16:43.874Z,994.45
2019-02-27T07:17:42.965Z,994.46
2019-02-27T07:18:42.850Z,994.44
2019-02-27T07:19:42.940Z,994.44
2019-02-27T07:20:42.827Z,994.41
2019-02-27T07:21:42.816Z,994.39
2019-02-27T07:22:45.481Z,994.39
2019-02-27T07:23:42.778Z,994.38
2019-02-27T07:24:42.887Z,994.39
2019-02-27T07:25:42.887Z,994.38
2019-02-27T07:26:42.770Z,994.36
2019-02-27T07:27:42.768Z,994.34
2019-02-27T07:28:43.603Z,994.34
2019-02-27T07:29:42.982Z,994.32
2019-02-27T07:30:43.275Z,994.27
2019-02-27T07:31:42.709Z,994.28
2019-02-27T07:32:42.770Z,994.27
2019-02-27T07:33:42.681Z,994.27
2019-02-27T07:34:42.761Z,994.28
2019-02-27T07:35:42.696Z,994.25
2019-02-27T07:36:42.653Z,994.23
2019-02-27T07:37:47.029Z,994.20
2019-02-27T07:38:45.715Z,994.19
2019-02-27T07:39:42.623Z,994.17
2019-02-27T07:40:44.741Z,994.12
2019-02-27T07:41:42.635Z,994.07
2019-02-27T07:42:42.625Z,994.11
2019-02-27T07:43:42.575Z,994.05
2019-02-27T07:44:42.565Z,994.00
2019-02-27T07:45:45.544Z,993.96
2019-02-27T07:46:42.549Z,993.93
2019-02-27T07:47:42.547Z,993.96
2019-02-27T07:48:42.537Z,993.85
2019-02-27T07:49:42.588Z,993.87
2019-02-27T07:50:42.497Z,993.87
2019-02-27T07:51:42.529Z,993.89
2019-02-27T07:52:42.473Z,993.85
2019-02-27T07:53:42.508Z,993.80
2019-02-27T07:54:42.463Z,993.80
2019-02-27T07:55:42.487Z,993.85
2019-02-27T07:56:42.429Z,993.85
2019-02-27T07:57:42.408Z,993.79
2019-02-27T07:58:42.416Z,993.84
2019-02-27T07:59:42.398Z,993.84
2019-02-27T08:00:42.907Z,993.84
2019-02-27T08:01:44.054Z,993.80
2019-02-27T08:02:42.361Z,993.83
2019-02-27T08:03:44.781Z,993.83
2019-02-27T08:04:42.402Z,993.79
2019-02-27T08:05:42.318Z,993.83
2019-02-27T08:06:42.329Z,993.82
2019-02-27T08:07:42.304Z,993.82
2019-02-27T08:08:42.411Z,993.86
2019-02-27T08:09:42.282Z,993.82
2019-02-27T08:10:42.302Z,993.81
2019-02-27T08:11:47.008Z,993.80
2019-02-27T08:12:43.265Z,993.80
2019-02-27T08:13:42.253Z,993.77
2019-02-27T08:14:42.274Z,993.77
2019-02-27T08:15:42.214Z,993.77
2019-02-27T08:16:42.225Z,993.73
2019-02-27T08:17:42.212Z,993.71
2019-02-27T08:18:42.196Z,993.68
2019-02-27T08:19:42.874Z,993.73
2019-02-27T08:20:42.178Z,993.73
2019-02-27T08:21:42.158Z,993.72
2019-02-27T08:22:42.207Z,993.66
2019-02-27T08:23:42.147Z,993.70
2019-02-27T08:24:42.091Z,993.65
2019-02-27T08:25:42.128Z,993.63
2019-02-27T08:26:42.088Z,993.62
2019-02-27T08:27:43.871Z,993.60
2019-02-27T08:28:42.073Z,993.61
2019-02-27T08:29:42.066Z,993.62
2019-02-27T08:30:42.032Z,993.55
2019-02-27T08:31:42.141Z,993.55
2019-02-27T08:32:42.016Z,993.54
2019-02-27T08:33:42.102Z,993.57
2019-02-27T08:34:41.998Z,993.57
2019-02-27T08:35:41.982Z,993.57
2019-02-27T08:36:42.073Z,993.50
2019-02-27T08:37:41.963Z,993.51
2019-02-27T08:38:42.053Z,993.51
2019-02-27T08:39:41.944Z,993.51
2019-02-27T08:40:41.934Z,993.48
2019-02-27T08:41:41.922Z,993.45
2019-02-27T08:42:41.977Z,993.48
2019-02-27T08:43:42.033Z,993.45
2019-02-27T08:44:42.990Z,993.45
2019-02-27T08:45:41.878Z,993.45
2019-02-27T08:46:41.945Z,993.43
2019-02-27T08:47:43.513Z,993.44
2019-02-27T08:48:41.926Z,993.42
2019-02-27T08:49:41.830Z,993.46
2019-02-27T08:50:41.917Z,993.45
2019-02-27T08:51:42.602Z,993.43
2019-02-27T08:52:41.882Z,993.45
2019-02-27T08:53:41.802Z,993.40
2019-02-27T08:54:42.811Z,993.42
2019-02-27T08:55:41.771Z,993.42
2019-02-27T08:56:44.135Z,993.45
2019-02-27T08:57:42.751Z,993.39
2019-02-27T08:58:41.814Z,993.38
2019-02-27T08:59:41.734Z,993.42
2019-02-27T09:00:47.137Z,993.39
2019-02-27T09:01:42.697Z,993.34
2019-02-27T09:02:41.685Z,993.32
2019-02-27T09:03:41.757Z,993.34
2019-02-27T09:04:42.855Z,993.30
2019-02-27T09:05:41.741Z,993.31
2019-02-27T09:06:41.648Z,993.27
2019-02-27T09:07:43.115Z,993.29
2019-02-27T09:08:44.103Z,993.29
2019-02-27T09:09:41.765Z,993.30
2019-02-27T09:10:41.600Z,993.24
2019-02-27T09:11:41.657Z,993.21
2019-02-27T09:12:41.552Z,993.21
2019-02-27T09:13:41.604Z,993.22
2019-02-27T09:14:41.544Z,993.21
2019-02-27T09:15:43.570Z,993.12
2019-02-27T09:16:41.525Z,993.16
2019-02-27T09:17:41.555Z,993.11
2019-02-27T09:18:41.507Z,993.08
2019-02-27T09:19:45.318Z,993.10
2019-02-27T09:20:41.481Z,993.07
2019-02-27T09:21:41.536Z,993.02
2019-02-27T09:22:41.461Z,993.03
2019-02-27T09:23:41.559Z,992.96
2019-02-27T09:24:41.451Z,992.99
2019-02-27T09:25:42.339Z,992.96
2019-02-27T09:26:42.383Z,992.95
2019-02-27T09:27:41.432Z,992.93
2019-02-27T09:28:44.104Z,992.90
2019-02-27T09:29:41.393Z,992.86
2019-02-27T09:30:41.363Z,992.87
2019-02-27T09:31:50.537Z,992.82
2019-02-27T09:32:43.336Z,992.77
2019-02-27T09:33:41.446Z,992.82
2019-02-27T09:34:41.346Z,992.79
2019-02-27T09:35:42.405Z,992.72
2019-02-27T09:36:43.189Z,992.74
2019-02-27T09:37:42.339Z,992.69
2019-02-27T09:38:41.277Z,992.69
2019-02-27T09:39:42.310Z,992.66
2019-02-27T09:40:41.265Z,992.67
2019-02-27T09:41:46.130Z,992.70
2019-02-27T09:42:42.254Z,992.61
2019-02-27T09:43:41.321Z,992.61
2019-02-27T09:44:41.233Z,992.66
2019-02-27T09:45:46.208Z,992.59
2019-02-27T09:46:42.193Z,992.53
2019-02-27T09:47:41.294Z,992.51
2019-02-27T09:48:41.177Z,992.52
2019-02-27T09:49:42.275Z,992.47
2019-02-27T09:50:41.226Z,992.45
2019-02-27T09:51:41.138Z,992.45
2019-02-27T09:52:41.237Z,992.43
2019-02-27T09:53:41.125Z,992.37
2019-02-27T09:54:41.218Z,992.37
2019-02-27T09:55:41.098Z,992.36
2019-02-27T09:56:41.080Z,992.33
2019-02-27T09:57:41.071Z,992.31
2019-02-27T09:58:45.056Z,992.36
2019-02-27T09:59:41.071Z,992.33
2019-02-27T10:00:41.084Z,992.34
2019-02-27T10:01:41.019Z,992.28
2019-02-27T10:02:43.114Z,992.29
2019-02-27T10:03:41.003Z,992.28
2019-02-27T10:04:41.108Z,992.27
2019-02-27T10:05:41.029Z,992.31
2019-02-27T10:06:42.761Z,992.28
2019-02-27T10:07:40.947Z,992.23
2019-02-27T10:08:41.027Z,992.22
2019-02-27T10:09:40.948Z,992.17
2019-02-27T10:10:44.929Z,992.17
2019-02-27T10:11:40.899Z,992.12
2019-02-27T10:12:42.272Z,992.11
2019-02-27T10:13:40.882Z,992.16
2019-02-27T10:14:40.981Z,992.13
2019-02-27T10:15:40.863Z,992.07
2019-02-27T10:16:40.873Z,992.10
2019-02-27T10:17:41.034Z,992.05
2019-02-27T10:18:40.837Z,992.01
2019-02-27T10:19:40.936Z,991.96
2019-02-27T10:20:40.807Z,991.92
2019-02-27T10:21:41.376Z,991.92
2019-02-27T10:22:40.786Z,991.92
2019-02-27T10:23:40.779Z,991.93
2019-02-27T10:24:40.780Z,991.84
2019-02-27T10:25:43.255Z,991.85
2019-02-27T10:26:40.738Z,991.85
2019-02-27T10:27:40.819Z,991.83
2019-02-27T10:28:40.745Z,991.79
2019-02-27T10:29:40.725Z,991.81
2019-02-27T10:30:41.752Z,991.81
2019-02-27T10:31:40.693Z,991.77
2019-02-27T10:32:40.762Z,991.75
2019-02-27T10:33:42.815Z,991.78
2019-02-27T10:34:40.691Z,991.70
2019-02-27T10:35:40.652Z,991.72
2019-02-27T10:36:40.737Z,991.71
2019-02-27T10:37:40.702Z,991.69
2019-02-27T10:38:42.719Z,991.67
2019-02-27T10:39:40.607Z,991.66
2019-02-27T10:40:40.588Z,991.62
2019-02-27T10:41:42.620Z,991.54
2019-02-27T10:42:40.559Z,991.54
2019-02-27T10:43:40.619Z,991.52
2019-02-27T10:44:40.561Z,991.52
2019-02-27T10:45:42.135Z,991.39
2019-02-27T10:46:40.532Z,991.40
2019-02-27T10:47:40.584Z,991.47
2019-02-27T10:48:40.508Z,991.43
2019-02-27T10:49:40.543Z,991.36
2019-02-27T10:50:40.474Z,991.39
2019-02-27T10:51:41.533Z,991.31
2019-02-27T10:52:40.525Z,991.29
2019-02-27T10:53:40.451Z,991.30
2019-02-27T10:54:40.497Z,991.25
2019-02-27T10:55:40.421Z,991.25
2019-02-27T10:56:40.408Z,991.31
2019-02-27T10:57:40.389Z,991.31
2019-02-27T10:58:40.429Z,991.35
2019-02-27T10:59:40.384Z,991.28
2019-02-27T11:00:41.387Z,991.26
2019-02-27T11:01:40.361Z,991.30
2019-02-27T11:02:40.342Z,991.29
2019-02-27T11:03:40.373Z,991.26
2019-02-27T11:04:40.339Z,991.29
2019-02-27T11:05:40.408Z,991.20
2019-02-27T11:06:40.300Z,991.21
2019-02-27T11:07:40.286Z,991.23
2019-02-27T11:08:40.278Z,991.14
2019-02-27T11:09:41.211Z,991.14
2019-02-27T11:10:40.246Z,991.10
2019-02-27T11:11:41.339Z,991.10
2019-02-27T11:12:40.232Z,991.09
2019-02-27T11:13:40.254Z,990.98
2019-02-27T11:14:40.224Z,990.98
2019-02-27T11:15:41.453Z,990.90
2019-02-27T11:16:40.185Z,990.91
2019-02-27T11:17:41.242Z,990.86
2019-02-27T11:18:40.166Z,990.86
2019-02-27T11:19:40.207Z,990.83
2019-02-27T11:20:40.149Z,990.85
2019-02-27T11:21:41.215Z,990.85
2019-02-27T11:22:40.116Z,990.82
2019-02-27T11:23:41.154Z,990.87
2019-02-27T11:24:40.098Z,990.89
2019-02-27T11:25:40.208Z,990.86
2019-02-27T11:26:40.077Z,990.95
2019-02-27T11:27:40.116Z,990.84
2019-02-27T11:28:40.050Z,990.88
2019-02-27T11:29:40.141Z,990.86
2019-02-27T11:30:40.062Z,990.85
2019-02-27T11:31:42.320Z,990.81
2019-02-27T11:32:41.002Z,990.80
2019-02-27T11:33:40.019Z,990.82
2019-02-27T11:34:39.984Z,990.77
2019-02-27T11:35:41.015Z,990.76
2019-02-27T11:36:39.965Z,990.73
2019-02-27T11:37:39.985Z,990.67
2019-02-27T11:38:39.928Z,990.67
2019-02-27T11:39:39.917Z,990.70
2019-02-27T11:40:42.641Z,990.70
2019-02-27T11:41:39.969Z,990.69
2019-02-27T11:42:39.890Z,990.70
2019-02-27T11:43:40.795Z,990.67
2019-02-27T11:44:39.919Z,990.72
2019-02-27T11:45:39.985Z,990.69
2019-02-27T11:46:39.831Z,990.70
2019-02-27T11:47:45.067Z,990.68
2019-02-27T11:48:40.841Z,990.66
2019-02-27T11:49:39.917Z,990.65
2019-02-27T11:50:39.834Z,990.66
2019-02-27T11:51:39.843Z,990.64
2019-02-27T11:52:46.231Z,990.63
2019-02-27T11:53:40.784Z,990.58
2019-02-27T11:54:42.987Z,990.58
2019-02-27T11:55:39.866Z,990.57
2019-02-27T11:56:39.745Z,990.48
2019-02-27T11:57:39.749Z,990.44
2019-02-27T11:58:39.727Z,990.52
2019-02-27T11:59:39.786Z,990.43
2019-02-27T12:00:39.717Z,990.49
2019-02-27T12:01:39.689Z,990.48
2019-02-27T12:02:39.683Z,990.47
2019-02-27T12:03:39.668Z,990.45
2019-02-27T12:04:39.729Z,990.44
2019-02-27T12:05:39.641Z,990.39
2019-02-27T12:06:41.587Z,990.39
2019-02-27T12:07:41.674Z,990.38
2019-02-27T12:08:39.607Z,990.41
2019-02-27T12:09:41.605Z,990.37
2019-02-27T12:10:39.585Z,990.37
2019-02-27T12:11:39.538Z,990.33
2019-02-27T12:12:39.540Z,990.34
2019-02-27T12:13:39.628Z,990.40
2019-02-27T12:14:39.508Z,990.33
2019-02-27T12:15:43.341Z,990.32
2019-02-27T12:16:39.516Z,990.37
2019-02-27T12:17:39.494Z,990.36
2019-02-27T12:18:39.571Z,990.30
2019-02-27T12:19:42.517Z,990.26
2019-02-27T12:20:39.531Z,990.29
2019-02-27T12:21:39.454Z,990.29
2019-02-27T12:22:39.445Z,990.27
2019-02-27T12:23:41.256Z,990.26
2019-02-27T12:24:39.486Z,990.23
2019-02-27T12:25:39.429Z,990.21
2019-02-27T12:26:39.415Z,990.16
2019-02-27T12:27:48.960Z,990.11
2019-02-27T12:28:40.373Z,990.14